createdAt,value
2019-02-08T00:02:23.126Z,1002.45
2019-02-08T00:07:23.348Z,1002.46
2019-02-08T00:12:23.084Z,1002.51
2019-02-08T00:17:23.260Z,1002.41
2019-02-08T00:22:23.141Z,1002.49
2019-02-08T00:27:23.306Z,1002.50
2019-02-08T00:32:23.217Z,1002.50
2019-02-08T00:37:23.281Z,1002.39
2019-02-08T00:42:23.233Z,1002.37
2019-02-08T00:47:23.119Z,1002.31
2019-02-08T00:52:23.163Z,1002.41
2019-02-08T00:57:23.184Z,1002.29
2019-02-08T01:02:23.250Z,1002.28
2019-02-08T01:07:23.455Z,1002.27
2019-02-08T01:12:23.410Z,1002.27
2019-02-08T01:17:23.214Z,1002.33
2019-02-08T01:22:23.148Z,1002.27
2019-02-08T01:27:23.232Z,1002.29
2019-02-08T01:32:23.264Z,1002.24
2019-02-08T01:37:23.180Z,1002.20
2019-02-08T01:42:23.196Z,1002.24
2019-02-08T01:47:23.231Z,1002.23
2019-02-08T01:52:23.273Z,1002.21
2019-02-08T01:57:24.364Z,1002.32
2019-02-08T02:02:23.241Z,1002.36
2019-02-08T02:07:24.304Z,1002.27
2019-02-08T02:12:23.204Z,1002.34
2019-02-08T02:17:23.242Z,1002.31
2019-02-08T02:22:23.280Z,1002.33
2019-02-08T02:27:23.228Z,1002.30
2019-02-08T02:32:23.277Z,1002.33
2019-02-08T02:37:24.301Z,1002.36
2019-02-08T02:42:23.247Z,1002.32
2019-02-08T02:47:23.194Z,1002.27
2019-02-08T02:52:23.278Z,1002.16
2019-02-08T02:57:23.205Z,1002.21
2019-02-08T03:02:23.360Z,1002.20
2019-02-08T03:07:23.492Z,1002.16
2019-02-08T03:12:23.221Z,1002.15
2019-02-08T03:17:23.800Z,1002.06
2019-02-08T03:22:23.338Z,1002.02
2019-02-08T03:27:23.220Z,1002.06
2019-02-08T03:32:23.217Z,1001.98
2019-02-08T03:37:23.384Z,1001.96
2019-02-08T03:42:23.228Z,1002.01
2019-02-08T03:47:23.379Z,1002.01
2019-02-08T03:52:23.401Z,1001.80
2019-02-08T03:57:23.539Z,1001.83
2019-02-08T04:02:23.246Z,1001.76
2019-02-08T04:07:23.283Z,1001.70
2019-02-08T04:12:23.534Z,1001.77
2019-02-08T04:17:23.383Z,1001.70
2019-02-08T04:22:23.419Z,1001.71
2019-02-08T04:27:23.328Z,1001.76
2019-02-08T04:32:23.625Z,1001.74
2019-02-08T04:37:23.298Z,1001.79
2019-02-08T04:42:23.452Z,1001.78
2019-02-08T04:47:23.569Z,1001.84
2019-02-08T04:52:23.302Z,1001.85
2019-02-08T04:57:23.331Z,1001.73
2019-02-08T05:02:23.481Z,1001.71
2019-02-08T05:07:23.301Z,1001.70
2019-02-08T05:12:23.351Z,1001.67
2019-02-08T05:17:23.475Z,1001.53
2019-02-08T05:22:23.432Z,1001.54
2019-02-08T05:27:23.354Z,1001.56
2019-02-08T05:32:23.502Z,1001.50
2019-02-08T05:37:23.752Z,1001.44
2019-02-08T05:42:23.372Z,1001.40
2019-02-08T05:47:23.421Z,1001.34
2019-02-08T05:52:23.410Z,1001.42
2019-02-08T05:57:23.552Z,1001.43
2019-02-08T06:02:23.412Z,1001.37
2019-02-08T06:07:23.422Z,1001.24
2019-02-08T06:12:23.477Z,1001.41
2019-02-08T06:17:23.542Z,1001.39
2019-02-08T06:22:23.424Z,1001.44
2019-02-08T06:27:23.458Z,1001.42
2019-02-08T06:32:23.600Z,1001.35
2019-02-08T06:37:23.423Z,1001.37
2019-02-08T06:42:23.420Z,1001.39
2019-02-08T06:47:23.738Z,1001.43
2019-02-08T06:52:23.532Z,1001.50
2019-02-08T06:57:23.431Z,1001.43
2019-02-08T07:02:23.605Z,1001.43
2019-02-08T07:07:23.481Z,1001.50
2019-02-08T07:12:23.519Z,1001.42
2019-02-08T07:17:23.829Z,1001.37
2019-02-08T07:22:23.582Z,1001.33
2019-02-08T07:27:23.602Z,1001.40
2019-02-08T07:32:23.515Z,1001.34
2019-02-08T07:37:23.569Z,1001.29
2019-02-08T07:42:23.493Z,1001.28
2019-02-08T07:47:23.547Z,1001.30
2019-02-08T07:52:23.452Z,1001.33
2019-02-08T07:57:23.614Z,1001.32
2019-02-08T08:02:23.556Z,1001.41
2019-02-08T08:07:23.595Z,1001.41
2019-02-08T08:12:23.480Z,1001.46
2019-02-08T08:17:23.747Z,1001.49
2019-02-08T08:22:23.706Z,1001.50
2019-02-08T08:27:24.257Z,1001.45
2019-02-08T08:32:23.616Z,1001.40
2019-02-08T08:37:24.755Z,1001.35
2019-02-08T08:42:23.516Z,1001.40
2019-02-08T08:47:23.562Z,1001.33
2019-02-08T08:52:23.563Z,1001.38
2019-02-08T08:57:23.626Z,1001.35
2019-02-08T09:02:23.774Z,1001.38
2019-02-08T09:07:23.669Z,1001.21
2019-02-08T09:12:23.713Z,1001.12
2019-02-08T09:17:23.573Z,1001.06
2019-02-08T09:22:23.568Z,1000.96
2019-02-08T09:27:23.751Z,1000.87
2019-02-08T09:32:23.652Z,1000.89
2019-02-08T09:37:23.585Z,1000.77
2019-02-08T09:42:23.653Z,1000.67
2019-02-08T09:47:23.646Z,1000.75
2019-02-08T09:52:23.542Z,1000.73
2019-02-08T09:57:23.612Z,1000.63
2019-02-08T10:02:23.956Z,1000.57
2019-02-08T10:07:23.591Z,1000.47
2019-02-08T10:12:23.598Z,1000.42
2019-02-08T10:17:23.652Z,1000.38
2019-02-08T10:22:23.620Z,1000.37
2019-02-08T10:27:23.614Z,1000.42
2019-02-08T10:32:23.767Z,1000.47
2019-02-08T10:37:23.692Z,1000.39
2019-02-08T10:42:23.627Z,1000.36
2019-02-08T10:47:23.750Z,1000.32
2019-02-08T10:52:24.738Z,1000.22
2019-02-08T10:57:23.755Z,1000.30
2019-02-08T11:02:23.671Z,1000.19
2019-02-08T11:07:27.904Z,1000.16
2019-02-08T11:12:23.633Z,1000.07
2019-02-08T11:17:23.674Z,999.89
2019-02-08T11:22:23.940Z,999.82
2019-02-08T11:27:23.671Z,999.76
2019-02-08T11:32:23.701Z,999.67
2019-02-08T11:37:23.726Z,999.64
2019-02-08T11:42:23.881Z,999.62
2019-02-08T11:47:23.799Z,999.67
2019-02-08T11:52:23.912Z,999.50
2019-02-08T11:57:23.763Z,999.51
2019-02-08T12:02:23.714Z,999.44
2019-02-08T12:07:23.741Z,999.36
2019-02-08T12:12:23.794Z,999.34
2019-02-08T12:17:23.703Z,999.24
2019-02-08T12:22:23.721Z,999.04
2019-02-08T12:27:23.710Z,999.14
2019-02-08T12:32:23.798Z,999.03
2019-02-08T12:37:23.722Z,998.86
2019-02-08T12:42:23.773Z,998.89
2019-02-08T12:47:23.905Z,998.87
2019-02-08T12:52:23.870Z,998.84
2019-02-08T12:57:23.972Z,998.91
2019-02-08T13:02:24.128Z,998.90
2019-02-08T13:07:23.951Z,998.85
2019-02-08T13:12:23.748Z,998.69
2019-02-08T13:17:23.814Z,998.71
2019-02-08T13:22:23.855Z,998.49
2019-02-08T13:27:23.876Z,998.43
2019-02-08T13:32:23.807Z,998.41
2019-02-08T13:37:23.856Z,998.31
2019-02-08T13:42:23.771Z,998.29
2019-02-08T13:47:23.834Z,998.08
2019-02-08T13:52:23.845Z,998.15
2019-02-08T13:57:23.916Z,998.03
2019-02-08T14:02:23.923Z,997.98
2019-02-08T14:07:23.878Z,997.84
2019-02-08T14:12:23.987Z,997.75
2019-02-08T14:17:24.138Z,997.69
2019-02-08T14:22:24.802Z,997.61
2019-02-08T14:27:23.940Z,997.54
2019-02-08T14:32:23.843Z,997.50
2019-02-08T14:37:23.855Z,997.47
2019-02-08T14:42:23.896Z,997.19
2019-02-08T14:47:23.840Z,997.19
2019-02-08T14:52:23.878Z,997.14
2019-02-08T14:57:23.921Z,997.15
2019-02-08T15:02:23.852Z,996.99
2019-02-08T15:07:23.904Z,996.89
2019-02-08T15:12:24.037Z,996.88
2019-02-08T15:17:23.951Z,996.90
2019-02-08T15:22:24.009Z,996.86
2019-02-08T15:27:24.457Z,996.70
2019-02-08T15:32:23.945Z,996.80
2019-02-08T15:37:24.092Z,996.71
2019-02-08T15:42:24.114Z,996.56
2019-02-08T15:47:24.066Z,996.58
2019-02-08T15:52:23.901Z,996.40
2019-02-08T15:57:24.003Z,996.36
2019-02-08T16:02:23.972Z,996.43
2019-02-08T16:07:23.995Z,996.39
2019-02-08T16:12:23.941Z,996.27
2019-02-08T16:17:23.964Z,996.31
2019-02-08T16:22:24.109Z,996.17
2019-02-08T16:27:23.923Z,996.15
2019-02-08T16:32:23.973Z,996.02
2019-02-08T16:37:24.100Z,995.85
2019-02-08T16:42:24.130Z,995.75
2019-02-08T16:47:23.930Z,995.73
2019-02-08T16:52:24.196Z,995.52
2019-02-08T16:57:24.129Z,995.41
2019-02-08T17:02:23.933Z,995.29
2019-02-08T17:07:23.996Z,995.41
2019-02-08T17:12:24.054Z,995.29
2019-02-08T17:17:24.192Z,995.27
2019-02-08T17:22:24.030Z,995.34
2019-02-08T17:27:24.062Z,995.28
2019-02-08T17:32:23.971Z,995.26
2019-02-08T17:37:23.991Z,995.11
2019-02-08T17:42:23.996Z,995.21
2019-02-08T17:47:24.220Z,995.16
2019-02-08T17:52:24.125Z,995.16
2019-02-08T17:57:24.039Z,995.07
2019-02-08T18:02:24.109Z,995.02
2019-02-08T18:07:24.033Z,994.91
2019-02-08T18:12:24.156Z,994.87
2019-02-08T18:17:24.226Z,994.80
2019-02-08T18:22:24.148Z,994.75
2019-02-08T18:27:24.230Z,994.70
2019-02-08T18:32:24.223Z,994.55
2019-02-08T18:37:24.214Z,994.55
2019-02-08T18:42:24.171Z,994.57
2019-02-08T18:47:24.320Z,994.58
2019-02-08T18:52:24.323Z,994.52
2019-02-08T18:57:24.271Z,994.25
2019-02-08T19:02:24.115Z,994.20
2019-02-08T19:07:24.144Z,994.04
2019-02-08T19:12:24.189Z,994.01
2019-02-08T19:17:24.089Z,994.02
2019-02-08T19:22:24.135Z,993.79
2019-02-08T19:27:24.058Z,993.70
2019-02-08T19:32:24.088Z,993.69
2019-02-08T19:37:24.111Z,993.62
2019-02-08T19:42:24.182Z,993.59
2019-02-08T19:47:24.201Z,993.62
2019-02-08T19:52:24.121Z,993.48
2019-02-08T19:57:24.382Z,993.44
2019-02-08T20:02:24.121Z,993.46
2019-02-08T20:07:24.137Z,993.39
2019-02-08T20:12:24.184Z,993.19
2019-02-08T20:17:24.129Z,993.02
2019-02-08T20:22:24.171Z,993.03
2019-02-08T20:27:24.201Z,992.88
2019-02-08T20:32:24.204Z,992.68
2019-02-08T20:37:24.132Z,992.64
2019-02-08T20:42:24.169Z,992.63
2019-02-08T20:47:24.312Z,992.63
2019-02-08T20:52:24.356Z,992.64
2019-02-08T20:57:24.205Z,992.57
2019-02-08T21:02:24.346Z,992.47
2019-02-08T21:07:24.445Z,992.15
2019-02-08T21:12:24.324Z,992.11
2019-02-08T21:17:24.530Z,992.00
2019-02-08T21:22:24.390Z,992.03
2019-02-08T21:27:24.220Z,991.85
2019-02-08T21:32:24.368Z,991.82
2019-02-08T21:37:24.373Z,991.82
2019-02-08T21:42:24.310Z,991.83
2019-02-08T21:47:24.310Z,991.60
2019-02-08T21:52:24.266Z,991.68
2019-02-08T21:57:24.235Z,991.62
2019-02-08T22:02:24.262Z,991.68
2019-02-08T22:07:24.297Z,991.63
2019-02-08T22:12:24.291Z,991.44
2019-02-08T22:17:24.341Z,991.40
2019-02-08T22:22:24.670Z,991.34
2019-02-08T22:27:24.439Z,991.19
2019-02-08T22:32:24.561Z,991.15
2019-02-08T22:37:24.398Z,990.92
2019-02-08T22:42:24.441Z,990.76
2019-02-08T22:47:24.332Z,990.76
2019-02-08T22:52:24.258Z,990.69
2019-02-08T22:57:24.513Z,990.73
2019-02-08T23:02:24.660Z,990.51
2019-02-08T23:07:24.406Z,990.47
2019-02-08T23:12:24.401Z,990.39
2019-02-08T23:17:24.468Z,990.32
2019-02-08T23:22:24.401Z,990.36
2019-02-08T23:27:24.523Z,990.44
2019-02-08T23:32:24.543Z,990.42
2019-02-08T23:37:26.000Z,990.46
2019-02-08T23:42:24.424Z,990.50
2019-02-08T23:47:24.482Z,990.49
2019-02-08T23:52:24.275Z,990.42
2019-02-08T23:57:24.630Z,990.28
